Time;durP1;ratioP1;P1;durP2;ratioP2;P2;SDS_P1;SDS_P2;PMS_P1;PMS_P2;Temp;Humidity;BMP_temperature;BMP_pressure;BME280_temperature;BME280_humidity;BME280_pressure;Samples;Min_cycle;Max_cycle;Signal;HPM_P1;HPM_P2
2021/06/23 00:00:38;;;;;;;5.93;5.15;;;17.10;99.90;;;-141.85;100.00;63675.41;5095467;28;20253;-63
2021/06/23 00:03:06;;;;;;;8.00;5.32;;;17.10;99.90;;;-141.85;100.00;63675.41;5095458;28;20287;-63
2021/06/23 00:05:36;;;;;;;4.55;4.15;;;17.10;99.90;;;-141.85;100.00;63675.41;5095338;28;20196;-63
2021/06/23 00:08:05;;;;;;;5.53;4.47;;;17.10;99.90;;;-141.85;100.00;63675.41;5095491;28;20285;-63
2021/06/23 00:10:33;;;;;;;5.43;4.50;;;17.10;99.90;;;-141.85;100.00;63675.41;5095270;28;20600;-63
2021/06/23 00:13:05;;;;;;;7.40;4.72;;;17.10;99.90;;;-141.85;100.00;63675.41;5095256;28;20249;-63
2021/06/23 00:15:34;;;;;;;7.30;4.75;;;17.10;99.90;;;-141.85;100.00;63675.41;5095234;28;20177;-63
2021/06/23 00:18:04;;;;;;;6.20;4.50;;;17.10;99.90;;;-141.85;100.00;63675.41;5095093;28;20216;-63
2021/06/23 00:20:34;;;;;;;5.47;4.20;;;17.00;99.90;;;-141.85;100.00;63675.41;5094703;28;20303;-63
2021/06/23 00:23:03;;;;;;;5.15;4.65;;;17.00;99.90;;;-141.85;100.00;63675.41;5095069;28;20204;-63
2021/06/23 00:25:31;;;;;;;5.93;4.25;;;17.00;99.90;;;-141.85;100.00;63675.41;5094924;28;20236;-64
2021/06/23 00:27:59;;;;;;;5.97;4.35;;;17.10;99.90;;;-141.85;100.00;63675.41;5093340;28;20291;-63
2021/06/23 00:30:28;;;;;;;5.00;3.80;;;17.20;99.90;;;-141.85;100.00;63675.41;5094564;28;20226;-62
2021/06/23 00:33:06;;;;;;;4.78;4.32;;;17.20;99.90;;;-141.85;100.00;63675.41;5094819;28;20242;-64
2021/06/23 00:35:37;;;;;;;7.80;5.95;;;17.20;99.90;;;-141.85;100.00;63675.41;5094773;28;20290;-63
2021/06/23 00:38:05;;;;;;;6.05;4.60;;;17.10;99.90;;;-141.85;100.00;63675.41;5094490;28;20200;-63
2021/06/23 00:40:33;;;;;;;7.13;4.28;;;17.10;99.90;;;-141.85;100.00;63675.41;5094354;28;20200;-64
2021/06/23 00:43:02;;;;;;;5.78;4.15;;;17.10;99.90;;;-141.85;100.00;63675.41;5094357;28;20196;-62
2021/06/23 00:45:31;;;;;;;7.82;4.63;;;17.00;99.90;;;-141.85;100.00;63675.41;5094259;28;20215;-66
2021/06/23 00:48:00;;;;;;;8.93;4.80;;;17.00;99.90;;;-141.85;100.00;63675.41;5094546;28;20204;-62
2021/06/23 00:50:28;;;;;;;5.75;4.90;;;16.90;99.90;;;-141.85;100.00;63675.41;5094250;28;20200;-63
2021/06/23 00:52:58;;;;;;;5.95;5.03;;;16.90;99.90;;;-141.85;100.00;63675.41;5093990;28;20224;-63
2021/06/23 00:55:27;;;;;;;5.47;4.57;;;17.00;99.90;;;-141.85;100.00;63675.41;5094496;28;20593;-64
2021/06/23 00:57:57;;;;;;;6.25;4.50;;;17.00;99.90;;;-141.85;100.00;63675.41;5093945;28;20230;-63
2021/06/23 01:00:30;;;;;;;7.15;4.60;;;17.10;99.90;;;-141.85;100.00;63675.41;5093815;28;20200;-62
2021/06/23 01:02:59;;;;;;;7.10;4.53;;;17.00;99.90;;;-141.85;100.00;63675.41;5094222;28;20211;-63
2021/06/23 01:05:27;;;;;;;5.13;4.00;;;17.00;99.90;;;-141.85;100.00;63675.41;5093993;28;20219;-62
2021/06/23 01:07:56;;;;;;;6.15;4.53;;;17.00;99.90;;;-141.85;100.00;63675.41;5094012;28;20635;-63
2021/06/23 01:10:30;;;;;;;6.03;4.15;;;17.00;99.90;;;-141.85;100.00;63675.41;5094030;28;20295;-64
2021/06/23 01:13:28;;;;;;;4.55;3.95;;;17.20;99.90;;;-141.85;100.00;63675.41;5093654;28;20691;-64
2021/06/23 01:15:59;;;;;;;5.15;4.65;;;17.20;99.90;;;-141.85;100.00;63675.41;5093742;28;20712;-63
2021/06/23 01:18:27;;;;;;;7.40;4.38;;;17.20;99.90;;;-141.85;100.00;63675.41;5093897;28;20235;-63
2021/06/23 01:20:56;;;;;;;7.63;4.53;;;17.30;99.90;;;-141.85;100.00;63675.41;5093525;28;20201;-63
2021/06/23 01:23:25;;;;;;;6.50;4.40;;;17.40;99.90;;;-141.85;100.00;63675.41;5093653;28;20204;-63
2021/06/23 01:25:53;;;;;;;5.68;4.40;;;17.40;99.90;;;-141.85;100.00;63675.41;5093627;28;20200;-64
2021/06/23 01:28:21;;;;;;;6.57;4.22;;;17.30;99.90;;;-141.85;100.00;63675.41;5093608;28;20291;-62
2021/06/23 01:30:50;;;;;;;6.93;4.18;;;17.20;99.90;;;-141.85;100.00;63675.41;5093300;28;20210;-62
2021/06/23 01:33:18;;;;;;;7.07;4.45;;;17.20;99.90;;;-141.85;100.00;63675.41;5093695;28;20208;-63
2021/06/23 01:35:48;;;;;;;5.28;4.00;;;17.10;99.90;;;-141.85;100.00;63675.41;5093508;28;20309;-64
2021/06/23 01:38:16;;;;;;;6.28;4.15;;;17.10;99.90;;;-141.85;100.00;63675.41;5093022;28;20224;-63
2021/06/23 01:40:46;;;;;;;4.32;3.92;;;17.10;99.90;;;-141.85;100.00;63675.41;5093271;28;20239;-63
2021/06/23 01:43:14;;;;;;;6.95;3.97;;;17.10;99.90;;;-141.85;100.00;63675.41;5093310;28;20202;-63
2021/06/23 01:45:45;;;;;;;5.78;4.47;;;17.10;99.90;;;-141.85;100.00;63675.41;5093372;28;20287;-62
2021/06/23 01:48:15;;;;;;;5.18;4.65;;;17.10;99.90;;;-141.85;100.00;63675.41;5093458;28;20204;-63
2021/06/23 01:50:53;;;;;;;4.50;4.00;;;17.30;99.90;;;-141.85;100.00;63675.41;5093316;28;20207;-63
2021/06/23 01:53:21;;;;;;;4.93;4.43;;;17.20;99.90;;;-141.85;100.00;63675.41;5092627;28;20262;-62
2021/06/23 01:55:52;;;;;;;5.25;4.70;;;17.30;99.90;;;-141.85;100.00;63675.41;5093027;28;20555;-63
2021/06/23 01:58:22;;;;;;;7.22;4.55;;;17.40;99.90;;;-141.85;100.00;63675.41;5093140;28;20295;-63
2021/06/23 02:01:02;;;;;;;5.10;4.60;;;17.40;99.90;;;-141.85;100.00;63675.41;5093229;28;20180;-63
2021/06/23 02:04:12;;;;;;;6.57;4.43;;;17.50;99.90;;;-141.85;100.00;63675.41;5093093;28;20184;-64
2021/06/23 02:06:55;;;;;;;5.13;4.05;;;17.50;99.90;;;-141.85;100.00;63675.41;5030244;28;20258;-62
2021/06/23 02:09:56;;;;;;;7.25;4.90;;;17.40;99.90;;;-141.85;100.00;63675.41;5070491;28;20196;-62
2021/06/23 02:12:59;;;;;;;5.20;4.70;;;17.40;99.90;;;-141.85;100.00;63675.41;5072765;28;20276;-63
2021/06/23 02:15:29;;;;;;;6.22;5.40;;;17.40;99.90;;;-141.85;100.00;63675.41;5072752;28;20262;-62
2021/06/23 02:18:00;;;;;;;6.72;5.65;;;17.50;99.90;;;-141.85;100.00;63675.41;5072724;28;20204;-62
2021/06/23 02:20:30;;;;;;;6.90;5.65;;;17.50;99.90;;;-141.85;100.00;63675.41;5072739;28;20283;-63
2021/06/23 02:23:07;;;;;;;7.63;5.50;;;17.50;99.90;;;-141.85;100.00;63675.41;5072469;28;20279;-63
2021/06/23 02:25:36;;;;;;;6.75;6.05;;;17.50;99.90;;;-141.85;100.00;63675.41;5072680;28;20280;-63
2021/06/23 02:28:06;;;;;;;9.93;6.22;;;17.50;99.90;;;-141.85;100.00;63675.41;5072543;28;20203;-63
2021/06/23 02:30:37;;;;;;;8.10;5.63;;;17.50;99.90;;;-141.85;100.00;63675.41;5072504;28;20233;-63
2021/06/23 02:33:09;;;;;;;7.00;5.82;;;17.30;99.90;;;-141.85;100.00;63675.41;5072526;28;20275;-63
2021/06/23 02:35:39;;;;;;;9.07;6.53;;;17.30;99.90;;;-141.85;100.00;63675.41;5072302;28;20191;-63
2021/06/23 02:38:08;;;;;;;8.18;6.65;;;17.20;99.90;;;-141.85;100.00;63675.41;5072302;28;20208;-63
2021/06/23 02:40:38;;;;;;;8.80;6.85;;;17.30;99.90;;;-141.85;100.00;63675.41;5072185;28;20728;-63
2021/06/23 02:43:07;;;;;;;9.20;6.13;;;17.40;99.90;;;-141.85;100.00;63675.41;5072000;28;20196;-63
2021/06/23 02:45:36;;;;;;;7.80;6.97;;;17.30;99.90;;;-141.85;100.00;63675.41;5072437;28;20203;-63
2021/06/23 02:48:05;;;;;;;8.80;7.20;;;17.20;99.90;;;-141.85;100.00;63675.41;5072193;28;20196;-62
2021/06/23 02:50:40;;;;;;;7.47;6.35;;;17.20;99.90;;;-141.85;100.00;63675.41;5072425;28;20244;-63
2021/06/23 02:53:09;;;;;;;7.05;6.40;;;17.20;99.90;;;-141.85;100.00;63675.41;5075665;28;20271;-63
2021/06/23 02:55:38;;;;;;;8.25;7.00;;;17.20;99.90;;;-141.85;100.00;63675.41;5076107;28;20296;-62
2021/06/23 02:58:08;;;;;;;7.80;6.65;;;17.10;99.90;;;-141.85;100.00;63675.41;5076154;28;20332;-64
2021/06/23 03:00:36;;;;;;;6.95;6.35;;;17.00;99.90;;;-141.85;100.00;63675.41;5076361;28;20211;-63
2021/06/23 03:03:05;;;;;;;8.48;7.10;;;17.10;99.90;;;-141.85;100.00;63675.41;5076298;28;20311;-63
2021/06/23 03:05:33;;;;;;;8.95;6.85;;;17.10;99.90;;;-141.85;100.00;63675.41;5089993;28;20234;-63
2021/06/23 03:08:01;;;;;;;11.95;7.72;;;17.10;99.90;;;-141.85;100.00;63675.41;5096271;28;20230;-64
2021/06/23 03:10:29;;;;;;;9.73;8.20;;;17.10;99.90;;;-141.85;100.00;63675.41;5096503;28;20199;-64
2021/06/23 03:12:57;;;;;;;8.30;6.78;;;17.20;99.90;;;-141.85;100.00;63675.41;5096269;28;20292;-63
2021/06/23 03:15:26;;;;;;;8.02;7.18;;;17.20;99.90;;;-141.85;100.00;63675.41;5096039;28;20755;-63
2021/06/23 03:17:54;;;;;;;10.45;7.65;;;17.20;99.90;;;-141.85;100.00;63675.41;5095863;28;20211;-64
2021/06/23 03:20:22;;;;;;;9.48;8.40;;;17.20;99.90;;;-141.85;100.00;63675.41;5096235;28;20196;-62
2021/06/23 03:22:51;;;;;;;11.60;8.45;;;17.30;99.90;;;-141.85;100.00;63675.41;5096065;28;20304;-63
2021/06/23 03:25:19;;;;;;;9.05;7.65;;;17.30;99.90;;;-141.85;100.00;63675.41;5096224;28;20202;-63
2021/06/23 03:27:54;;;;;;;8.60;7.82;;;17.20;99.90;;;-141.85;100.00;63675.41;5095917;28;20184;-63
2021/06/23 03:30:27;;;;;;;10.70;8.70;;;17.20;99.90;;;-141.85;100.00;63675.41;5096087;28;20268;-63
2021/06/23 03:32:57;;;;;;;12.07;8.00;;;17.20;99.90;;;-141.85;100.00;63675.41;5095927;28;20184;-64
2021/06/23 03:35:26;;;;;;;11.18;8.35;;;17.10;99.90;;;-141.85;100.00;63675.41;5095818;28;20203;-63
2021/06/23 03:37:55;;;;;;;8.55;7.65;;;17.20;99.90;;;-141.85;100.00;63675.41;5095479;28;20739;-63
2021/06/23 03:40:25;;;;;;;10.55;8.23;;;17.20;99.90;;;-141.85;100.00;63675.41;5095728;28;20224;-63
2021/06/23 03:42:54;;;;;;;10.77;7.57;;;17.30;99.90;;;-141.85;100.00;63675.41;5095697;28;20236;-63
2021/06/23 03:45:43;;;;;;;9.07;8.02;;;17.30;99.90;;;-141.85;100.00;63675.41;5095746;28;20196;-63
2021/06/23 03:48:12;;;;;;;8.18;7.38;;;17.20;99.90;;;-141.85;100.00;63675.41;5095744;28;20196;-63
2021/06/23 03:50:41;;;;;;;10.60;8.10;;;17.20;99.90;;;-141.85;100.00;63675.41;5095679;28;20279;-63
2021/06/23 03:53:09;;;;;;;11.15;8.00;;;17.10;99.90;;;-141.85;100.00;63675.41;5095069;28;20711;-63
2021/06/23 03:55:38;;;;;;;11.27;7.50;;;17.10;99.90;;;-141.85;100.00;63675.41;5095649;28;20199;-63
2021/06/23 03:58:06;;;;;;;8.82;7.95;;;17.00;99.90;;;-141.85;100.00;63675.41;5095083;28;20248;-62
2021/06/23 04:00:34;;;;;;;12.60;8.25;;;17.00;99.90;;;-141.85;100.00;63675.41;5095097;28;20339;-65
2021/06/23 04:03:05;;;;;;;8.80;7.90;;;16.90;99.90;;;-141.85;100.00;63675.41;5094975;28;20200;-64
2021/06/23 04:05:32;;;;;;;8.65;7.82;;;16.90;99.90;;;-141.85;100.00;63675.41;5095571;28;20280;-62
2021/06/23 04:08:00;;;;;;;9.93;8.02;;;16.90;99.90;;;-141.85;100.00;63675.41;5094885;28;20200;-63
2021/06/23 04:10:28;;;;;;;9.02;7.75;;;16.80;99.90;;;-141.85;100.00;63675.41;5095067;28;20211;-63
2021/06/23 04:12:56;;;;;;;8.82;7.97;;;16.80;99.90;;;-141.85;100.00;63675.41;5094831;28;20206;-63
2021/06/23 04:15:24;;;;;;;9.82;8.35;;;16.80;99.90;;;-141.85;100.00;63675.41;5095025;28;20298;-63
2021/06/23 04:17:52;;;;;;;8.90;8.00;;;16.90;99.90;;;-141.85;100.00;63675.41;5095159;28;20202;-63
2021/06/23 04:20:22;;;;;;;9.32;8.00;;;16.90;99.90;;;-141.85;100.00;63675.41;5095024;28;20315;-63
2021/06/23 04:22:51;;;;;;;9.02;8.05;;;16.90;99.90;;;-141.85;100.00;63675.41;5094980;28;20549;-63
2021/06/23 04:25:19;;;;;;;10.20;8.88;;;17.00;99.90;;;-141.85;100.00;63675.41;5094928;28;20549;-64
2021/06/23 04:27:47;;;;;;;8.90;8.00;;;17.10;99.90;;;-141.85;100.00;63675.41;5094434;28;20291;-64
2021/06/23 04:30:17;;;;;;;9.00;8.15;;;17.20;99.90;;;-141.85;100.00;63675.41;5094528;28;20222;-63
2021/06/23 04:32:45;;;;;;;12.52;8.48;;;17.10;99.90;;;-141.85;100.00;63675.41;5094584;28;20783;-64
2021/06/23 04:35:13;;;;;;;11.15;8.82;;;17.20;99.90;;;-141.85;100.00;63675.41;5094816;28;20291;-63
2021/06/23 04:37:44;;;;;;;8.98;7.93;;;17.20;99.90;;;-141.85;100.00;63675.41;5094424;28;20678;-63
2021/06/23 04:40:16;;;;;;;9.60;8.68;;;17.10;99.90;;;-141.85;100.00;63675.41;5094335;28;20548;-63
2021/06/23 04:42:45;;;;;;;9.82;8.80;;;17.10;99.90;;;-141.85;100.00;63675.41;5094080;28;20521;-64
2021/06/23 04:45:15;;;;;;;11.07;8.35;;;17.10;99.90;;;-141.85;100.00;63675.41;5094535;28;20200;-63
2021/06/23 04:47:43;;;;;;;10.57;8.23;;;17.20;99.90;;;-141.85;100.00;63675.41;5094882;28;20283;-63
2021/06/23 04:50:12;;;;;;;9.70;7.93;;;17.30;99.90;;;-141.85;100.00;63675.41;5094433;28;20192;-64
2021/06/23 04:52:41;;;;;;;9.45;8.32;;;17.40;99.90;;;-141.85;100.00;63675.41;5094000;28;20349;-63
2021/06/23 04:55:16;;;;;;;9.63;7.95;;;17.40;99.90;;;-141.85;100.00;63675.41;5094275;28;20206;-66
2021/06/23 04:57:45;;;;;;;9.13;7.78;;;17.60;99.90;;;-141.85;100.00;63675.41;5093909;28;20605;-64
2021/06/23 05:00:14;;;;;;;12.55;8.20;;;17.70;99.90;;;-141.85;100.00;63675.41;5096306;28;20228;-63
2021/06/23 05:02:42;;;;;;;9.70;7.55;;;17.90;99.90;;;-141.85;100.00;63675.41;5093857;28;20235;-62
2021/06/23 05:05:12;;;;;;;8.55;7.70;;;17.80;99.90;;;-141.85;100.00;63675.41;5091052;28;20214;-64
2021/06/23 05:07:40;;;;;;;13.07;7.78;;;17.70;99.90;;;-141.85;100.00;63675.41;5093950;28;20206;-64
2021/06/23 05:10:10;;;;;;;7.75;6.95;;;17.80;99.90;;;-141.85;100.00;63675.41;5093493;28;20196;-64
2021/06/23 05:12:38;;;;;;;9.32;7.82;;;18.00;99.90;;;-141.85;100.00;63675.41;5093521;28;20700;-64
2021/06/23 05:15:08;;;;;;;11.63;7.45;;;18.00;99.90;;;-141.85;100.00;63675.41;5093276;28;20196;-65
2021/06/23 05:17:37;;;;;;;11.00;6.82;;;18.10;99.90;;;-141.85;100.00;63675.41;5093902;28;20265;-65
2021/06/23 05:20:06;;;;;;;8.13;7.05;;;18.20;99.90;;;-141.85;100.00;63675.41;5093418;28;20704;-64
2021/06/23 05:22:35;;;;;;;11.95;7.13;;;18.30;99.90;;;-141.85;100.00;63675.41;5093560;28;20207;-63
2021/06/23 05:25:04;;;;;;;8.77;7.03;;;18.40;99.90;;;-141.85;100.00;63675.41;5093542;28;20204;-63
2021/06/23 05:27:34;;;;;;;10.90;7.05;;;18.50;99.90;;;-141.85;100.00;63675.41;5093704;28;20231;-65
2021/06/23 05:30:02;;;;;;;7.70;6.82;;;18.40;99.90;;;-141.85;100.00;63675.41;5087591;28;20200;-64
2021/06/23 05:32:30;;;;;;;10.48;6.57;;;18.50;99.90;;;-141.85;100.00;63675.41;5078752;28;20292;-63
2021/06/23 05:34:58;;;;;;;7.72;6.93;;;18.70;99.90;;;-141.85;100.00;63675.41;5090793;28;20307;-64
2021/06/23 05:37:26;;;;;;;6.72;6.00;;;18.80;99.90;;;-141.85;100.00;63675.41;5092949;28;20196;-62
2021/06/23 05:39:55;;;;;;;8.45;6.40;;;18.70;99.90;;;-141.85;100.00;63675.41;5092663;28;20243;-63
2021/06/23 05:42:23;;;;;;;8.68;6.05;;;18.60;99.90;;;-141.85;100.00;63675.41;5092812;28;20192;-63
2021/06/23 05:44:52;;;;;;;7.95;5.90;;;18.40;99.90;;;-141.85;100.00;63675.41;5081871;28;20195;-62
2021/06/23 05:47:20;;;;;;;6.78;6.07;;;18.40;99.90;;;-141.85;100.00;63675.41;5093128;28;20287;-62
2021/06/23 05:49:48;;;;;;;9.73;6.10;;;18.40;99.90;;;-141.85;100.00;63675.41;5092667;28;20212;-63
2021/06/23 05:52:16;;;;;;;9.98;6.60;;;18.30;99.90;;;-141.85;100.00;63675.41;5093106;28;20681;-63
2021/06/23 05:54:44;;;;;;;13.13;6.97;;;18.20;99.90;;;-141.85;100.00;63675.41;5093290;28;20282;-63
2021/06/23 05:57:12;;;;;;;8.35;6.80;;;18.30;99.90;;;-141.85;100.00;63675.41;5087344;28;20218;-63
2021/06/23 05:59:40;;;;;;;7.55;6.65;;;18.10;99.90;;;-141.85;100.00;63675.41;5087059;28;20694;-62
2021/06/23 06:02:10;;;;;;;9.90;6.85;;;18.00;99.90;;;-141.85;100.00;63675.41;5092840;28;20204;-63
2021/06/23 06:04:38;;;;;;;9.35;6.90;;;18.00;99.90;;;-141.85;100.00;63675.41;5086497;28;20227;-63
2021/06/23 06:07:06;;;;;;;11.18;6.60;;;17.90;99.90;;;-141.85;100.00;63675.41;5075799;28;20883;-64
2021/06/23 06:09:34;;;;;;;8.65;6.53;;;18.00;99.90;;;-141.85;100.00;63675.41;5072608;28;20295;-62
2021/06/23 06:12:02;;;;;;;9.40;6.75;;;18.00;99.90;;;-141.85;100.00;63675.41;5072549;28;20197;-63
2021/06/23 06:14:30;;;;;;;9.43;6.13;;;18.20;99.90;;;-141.85;100.00;63675.41;5072468;28;20203;-63
2021/06/23 06:16:59;;;;;;;9.68;6.28;;;18.30;99.90;;;-141.85;100.00;63675.41;5072581;28;20201;-63
2021/06/23 06:19:29;;;;;;;8.43;5.97;;;18.50;99.90;;;-141.85;100.00;63675.41;5072616;28;20360;-63
2021/06/23 06:21:57;;;;;;;10.63;6.30;;;18.50;99.90;;;-141.85;100.00;63675.41;5072404;28;20225;-64
2021/06/23 06:24:25;;;;;;;9.95;6.25;;;18.50;99.90;;;-141.85;100.00;63675.41;5075139;28;20280;-66
2021/06/23 06:26:53;;;;;;;6.63;5.90;;;18.50;99.90;;;-141.85;100.00;63675.41;5089407;28;20670;-61
2021/06/23 06:29:21;;;;;;;7.07;6.25;;;18.50;99.90;;;-141.85;100.00;63675.41;5069172;28;20635;-63
2021/06/23 06:31:49;;;;;;;7.85;6.13;;;18.50;99.90;;;-141.85;100.00;63675.41;5069309;28;20200;-62
2021/06/23 06:34:17;;;;;;;10.20;6.65;;;18.50;99.90;;;-141.85;100.00;63675.41;5069278;28;20296;-63
2021/06/23 06:36:46;;;;;;;8.90;6.25;;;18.40;99.90;;;-141.85;100.00;63675.41;5068884;28;20687;-63
2021/06/23 06:39:14;;;;;;;7.03;5.65;;;18.30;99.90;;;-141.85;100.00;63675.41;5069216;28;20684;-64
2021/06/23 06:41:42;;;;;;;10.38;6.75;;;18.20;99.90;;;-141.85;100.00;63675.41;5087983;28;20252;-64
2021/06/23 06:44:10;;;;;;;9.25;6.93;;;18.00;99.90;;;-141.85;100.00;63675.41;5088223;28;20211;-64
2021/06/23 06:46:38;;;;;;;9.75;6.35;;;17.90;99.90;;;-141.85;100.00;63675.41;5089455;28;20211;-64
2021/06/23 06:49:06;;;;;;;11.70;6.85;;;17.70;99.90;;;-141.85;100.00;63675.41;5089163;28;20589;-62
2021/06/23 06:51:34;;;;;;;7.65;6.45;;;17.80;99.90;;;-141.85;100.00;63675.41;5089008;28;20857;-63
2021/06/23 06:54:04;;;;;;;11.30;6.45;;;17.80;99.90;;;-141.85;100.00;63675.41;5089131;28;20238;-63
2021/06/23 06:56:34;;;;;;;9.10;6.53;;;17.90;99.90;;;-141.85;100.00;63675.41;5089404;28;20593;-64
2021/06/23 06:59:02;;;;;;;10.70;7.20;;;17.80;99.90;;;-141.85;100.00;63675.41;5089394;28;20207;-65
2021/06/23 07:01:30;;;;;;;10.77;6.90;;;17.70;99.90;;;-141.85;100.00;63675.41;5088984;28;20220;-66
2021/06/23 07:03:58;;;;;;;8.80;6.95;;;17.70;99.90;;;-141.85;100.00;63675.41;5089211;28;20212;-66
2021/06/23 07:06:26;;;;;;;9.55;6.93;;;17.80;99.90;;;-141.85;100.00;63675.41;5089274;28;20204;-65
2021/06/23 07:08:54;;;;;;;11.48;6.90;;;17.80;99.90;;;-141.85;100.00;63675.41;5088968;28;20375;-67
2021/06/23 07:11:23;;;;;;;11.70;7.03;;;17.70;99.90;;;-141.85;100.00;63675.41;5089114;28;20299;-66
2021/06/23 07:13:51;;;;;;;8.68;6.80;;;17.60;99.90;;;-141.85;100.00;63675.41;5089337;28;20243;-66
2021/06/23 07:16:20;;;;;;;11.15;6.88;;;17.60;99.90;;;-141.85;100.00;63675.41;5089300;28;20207;-67
2021/06/23 07:18:49;;;;;;;8.93;6.60;;;17.50;99.90;;;-141.85;100.00;63675.41;5088968;28;20550;-63
2021/06/23 07:21:18;;;;;;;11.90;7.32;;;17.60;99.90;;;-141.85;100.00;63675.41;5088420;28;20246;-67
2021/06/23 07:23:47;;;;;;;10.60;6.82;;;17.90;99.90;;;-141.85;100.00;63675.41;5088989;28;20196;-69
2021/06/23 07:26:17;;;;;;;9.02;7.10;;;18.20;99.90;;;-141.85;100.00;63675.41;5088757;28;20295;-62
2021/06/23 07:28:49;;;;;;;7.13;5.97;;;18.40;99.90;;;-141.85;100.00;63675.41;5088667;28;20684;-63
2021/06/23 07:31:23;;;;;;;8.50;6.10;;;18.60;99.90;;;-141.85;100.00;63675.41;5088948;28;20250;-62
2021/06/23 07:33:59;;;;;;;10.23;6.80;;;18.70;99.90;;;-141.85;100.00;63675.41;5088629;28;20646;-69
2021/06/23 07:36:35;;;;;;;8.32;6.47;;;18.80;99.90;;;-141.85;100.00;63675.41;5088983;28;20234;-70
2021/06/23 07:39:07;;;;;;;8.80;5.70;;;18.80;99.90;;;-141.85;100.00;63675.41;5092004;28;20191;-71
2021/06/23 07:41:36;;;;;;;10.23;6.63;;;18.90;99.90;;;-141.85;100.00;63675.41;5092434;28;20302;-64
2021/06/23 07:44:07;;;;;;;9.43;6.53;;;19.20;99.90;;;-141.85;100.00;63675.41;5092726;28;20195;-63
2021/06/23 07:46:39;;;;;;;10.02;6.55;;;19.20;99.90;;;-141.85;100.00;63675.41;5092431;28;20257;-64
2021/06/23 07:49:08;;;;;;;10.73;6.63;;;19.20;99.90;;;-141.85;100.00;63675.41;5092264;28;21291;-73
2021/06/23 07:51:45;;;;;;;7.82;6.80;;;18.90;99.90;;;-141.85;100.00;63675.41;5092025;28;20227;-67
2021/06/23 07:54:22;;;;;;;9.52;6.40;;;18.80;99.90;;;-141.85;100.00;63675.41;5092390;28;20184;-63
2021/06/23 08:08:48;;;;;;;10.25;7.20;;;18.00;99.90;;;-141.85;100.00;63675.41;5091822;28;20250;-61
2021/06/23 08:11:18;;;;;;;14.38;7.50;;;17.90;99.90;;;-141.85;100.00;63675.41;5092147;28;20180;-61
2021/06/23 08:13:47;;;;;;;13.55;8.27;;;17.90;99.90;;;-141.85;100.00;63675.41;5091906;28;20203;-61
2021/06/23 08:16:18;;;;;;;10.23;7.82;;;17.70;99.90;;;-141.85;100.00;63675.41;5092088;28;20650;-61
2021/06/23 08:18:46;;;;;;;11.95;7.80;;;17.70;99.90;;;-141.85;100.00;63675.41;5092372;28;20199;-64
2021/06/23 08:21:14;;;;;;;8.57;6.93;;;17.70;99.90;;;-141.85;100.00;63675.41;5091844;28;20251;-61
2021/06/23 08:23:42;;;;;;;10.00;8.07;;;17.60;99.90;;;-141.85;100.00;63675.41;5091736;28;20236;-64
2021/06/23 08:26:10;;;;;;;10.23;8.15;;;17.60;99.90;;;-141.85;100.00;63675.41;5091801;28;20299;-62
2021/06/23 08:28:38;;;;;;;10.90;8.30;;;17.50;99.90;;;-141.85;100.00;63675.41;5091609;28;20295;-62
2021/06/23 08:31:06;;;;;;;13.35;8.13;;;17.50;99.90;;;-141.85;100.00;63675.41;5091750;28;20218;-60
2021/06/23 08:33:35;;;;;;;10.90;7.90;;;17.40;99.90;;;-141.85;100.00;63675.41;5091702;28;20200;-72
2021/06/23 08:36:05;;;;;;;8.85;7.10;;;17.30;99.90;;;-141.85;100.00;63675.41;5091670;28;20240;-71
2021/06/23 08:38:33;;;;;;;10.65;7.00;;;17.30;99.90;;;-141.85;100.00;63675.41;5091001;28;20287;-72
2021/06/23 08:41:03;;;;;;;10.80;7.45;;;17.30;99.90;;;-141.85;100.00;63675.41;5091429;28;20291;-71
2021/06/23 08:43:31;;;;;;;9.70;6.75;;;17.40;99.90;;;-141.85;100.00;63675.41;5091427;28;20243;-70
2021/06/23 08:46:03;;;;;;;10.85;7.18;;;17.40;99.90;;;-141.85;100.00;63675.41;5091318;28;20686;-63
2021/06/23 08:48:32;;;;;;;9.35;7.68;;;17.50;99.90;;;-141.85;100.00;63675.41;5090647;28;20632;-61
2021/06/23 08:51:06;;;;;;;12.18;7.18;;;17.50;99.90;;;-141.85;100.00;63675.41;5090788;28;20200;-62
2021/06/23 08:53:35;;;;;;;10.57;7.82;;;17.70;99.90;;;-141.85;100.00;63675.41;5050914;28;20284;-62
2021/06/23 08:56:05;;;;;;;10.57;7.18;;;17.70;99.90;;;-141.85;100.00;63675.41;5050938;28;20219;-62
2021/06/23 08:58:34;;;;;;;11.85;7.43;;;17.80;99.90;;;-141.85;100.00;63675.41;5050865;28;20185;-65
2021/06/23 09:01:03;;;;;;;8.50;7.18;;;17.90;99.90;;;-141.85;100.00;63675.41;5050654;28;20258;-62
2021/06/23 09:03:31;;;;;;;10.07;7.50;;;18.10;99.90;;;-141.85;100.00;63675.41;5050649;28;20836;-62
2021/06/23 09:06:00;;;;;;;9.70;7.28;;;18.10;99.90;;;-141.85;100.00;63675.41;5050351;28;20768;-62
2021/06/23 09:08:38;;;;;;;11.98;6.78;;;18.20;99.90;;;-141.85;100.00;63675.41;5050619;28;20206;-59
2021/06/23 09:11:16;;;;;;;9.38;7.28;;;18.30;99.90;;;-141.85;100.00;63675.41;5050517;28;20594;-59
2021/06/23 09:13:44;;;;;;;10.70;7.15;;;18.40;99.90;;;-141.85;100.00;63675.41;5050455;28;20276;-62
2021/06/23 09:16:13;;;;;;;11.10;7.20;;;18.50;99.90;;;-141.85;100.00;63675.41;5050183;28;20312;-61
2021/06/23 09:18:43;;;;;;;10.27;6.45;;;18.60;99.90;;;-141.85;100.00;63675.41;5050280;28;20686;-62
2021/06/23 09:21:18;;;;;;;11.10;6.60;;;18.30;99.90;;;-141.85;100.00;63675.41;5050063;28;20206;-62
2021/06/23 09:23:51;;;;;;;9.40;6.93;;;18.10;99.90;;;-141.85;100.00;63675.41;5047997;28;20290;-62
2021/06/23 09:26:27;;;;;;;8.38;6.50;;;18.10;99.90;;;-141.85;100.00;63675.41;5049604;28;20247;-64
2021/06/23 09:29:08;;;;;;;13.50;7.35;;;17.90;99.90;;;-141.85;100.00;63675.41;5050118;28;20186;-63
2021/06/23 09:31:53;;;;;;;10.15;7.28;;;17.80;99.90;;;-141.85;100.00;63675.41;5050247;28;20189;-62
2021/06/23 09:34:23;;;;;;;10.82;7.15;;;17.90;99.90;;;-141.85;100.00;63675.41;5049884;28;20189;-61
2021/06/23 09:36:52;;;;;;;11.15;7.63;;;17.90;99.90;;;-141.85;100.00;63675.41;5050175;28;20296;-62
2021/06/23 09:39:23;;;;;;;11.18;6.55;;;18.00;99.90;;;-141.85;100.00;63675.41;5049646;28;20240;-63
2021/06/23 09:41:53;;;;;;;9.68;7.22;;;18.10;99.90;;;-141.85;100.00;63675.41;5049536;28;20755;-62
2021/06/23 09:44:23;;;;;;;11.93;6.72;;;18.10;99.90;;;-141.85;100.00;63675.41;5050028;28;20205;-62
2021/06/23 09:46:53;;;;;;;9.50;6.88;;;18.10;99.90;;;-141.85;100.00;63675.41;5049805;28;20243;-62
2021/06/23 09:49:24;;;;;;;10.68;6.78;;;18.30;99.90;;;-141.85;100.00;63675.41;5049166;28;20711;-63
2021/06/23 09:51:55;;;;;;;11.15;6.65;;;18.30;99.90;;;-141.85;100.00;63675.41;5061908;28;20314;-61
2021/06/23 09:54:27;;;;;;;9.13;6.68;;;18.40;99.90;;;-141.85;100.00;63675.41;5089288;28;20610;-62
2021/06/23 09:57:13;;;;;;;8.20;6.78;;;18.30;99.90;;;-141.85;100.00;63675.41;5089640;28;20192;-62
2021/06/23 09:59:43;;;;;;;10.82;7.70;;;18.50;99.90;;;-141.85;100.00;63675.41;5089756;28;20264;-63
2021/06/23 10:02:26;;;;;;;11.93;6.70;;;18.60;99.90;;;-141.85;100.00;63675.41;5089329;28;20677;-62
2021/06/23 10:04:57;;;;;;;10.85;6.32;;;18.70;99.90;;;-141.85;100.00;63675.41;5089906;28;20595;-62
2021/06/23 10:07:40;;;;;;;12.57;6.78;;;18.70;99.90;;;-141.85;100.00;63675.41;5089515;28;20184;-62
2021/06/23 10:10:14;;;;;;;10.27;6.55;;;18.70;99.90;;;-141.85;100.00;63675.41;5070410;28;20239;-62
2021/06/23 10:12:43;;;;;;;9.82;6.30;;;18.80;99.90;;;-141.85;100.00;63675.41;5069292;28;20184;-62
2021/06/23 10:15:13;;;;;;;7.63;6.55;;;18.90;99.90;;;-141.85;100.00;63675.41;5069393;28;20242;-62
2021/06/23 10:17:42;;;;;;;9.13;6.43;;;19.10;99.90;;;-141.85;100.00;63675.41;5069444;28;20236;-63
2021/06/23 10:20:13;;;;;;;8.57;6.00;;;19.30;99.90;;;-141.85;100.00;63675.41;5069211;28;20240;-63
2021/06/23 10:22:43;;;;;;;9.70;6.40;;;19.40;99.90;;;-141.85;100.00;63675.41;5068951;28;20658;-61